Time;durP1;ratioP1;P1;durP2;ratioP2;P2;SDS_P1;SDS_P2;PMS_P1;PMS_P2;Temp;Humidity;BMP_temperature;BMP_pressure;BME280_temperature;BME280_humidity;BME280_pressure;Samples;Min_cycle;Max_cycle;Signal;HPM_P1;HPM_P2
2023/07/28 00:00:32;;;;;;;7.97;7.17;;;;;;;17.19;100.00;101399.50;4972629;28;20198;-70
2023/07/28 00:02:58;;;;;;;8.40;6.50;;;;;;;17.18;100.00;101393.25;4977757;28;20209;-71
2023/07/28 00:05:23;;;;;;;9.63;7.20;;;;;;;17.35;100.00;101424.09;4991356;28;20488;-71
2023/07/28 00:07:49;;;;;;;10.30;7.90;;;;;;;16.77;100.00;101332.50;4977652;28;20217;-70
2023/07/28 00:10:14;;;;;;;12.00;7.80;;;;;;;17.34;100.00;101425.16;4975989;28;20225;-69
2023/07/28 00:12:40;;;;;;;8.97;8.07;;;;;;;17.35;100.00;101423.25;4977047;28;20232;-70
2023/07/28 00:15:05;;;;;;;11.13;7.20;;;;;;;17.36;100.00;101430.34;4978480;28;20288;-70
2023/07/28 00:17:31;;;;;;;12.73;7.17;;;;;;;17.38;100.00;101429.03;4973289;28;20723;-70
2023/07/28 00:19:56;;;;;;;8.80;6.63;;;;;;;17.40;100.00;101434.25;4981031;28;20186;-70
2023/07/28 00:22:22;;;;;;;7.57;6.70;;;;;;;17.16;100.00;101384.53;4981118;28;20194;-71
2023/07/28 00:24:47;;;;;;;7.37;6.40;;;;;;;17.03;100.00;101368.44;4983075;28;20202;-69
2023/07/28 00:27:14;;;;;;;7.33;5.97;;;;;;;17.38;100.00;101423.63;4977735;28;21139;-70
2023/07/28 00:29:41;;;;;;;10.43;7.10;;;;;;;17.37;100.00;101423.88;4971400;28;20218;-69
2023/07/28 00:32:07;;;;;;;7.93;5.90;;;;;;;17.40;100.00;101426.13;4973930;28;20937;-71
2023/07/28 00:34:32;;;;;;;11.10;6.67;;;;;;;16.95;100.00;101347.88;4979575;28;20487;-71
2023/07/28 00:36:57;;;;;;;12.73;7.20;;;;;;;17.27;100.00;101399.19;4980589;28;20463;-70
2023/07/28 00:39:23;;;;;;;6.80;5.60;;;;;;;17.39;100.00;101417.16;4978439;28;20179;-70
2023/07/28 00:41:48;;;;;;;5.43;4.80;;;;;;;17.36;100.00;101420.34;4980751;28;20194;-71
2023/07/28 00:44:16;;;;;;;6.07;5.20;;;;;;;17.23;100.00;101401.53;4976138;28;20850;-70
2023/07/28 00:46:41;;;;;;;9.17;7.00;;;;;;;17.17;100.00;101386.19;4972457;28;20218;-70
2023/07/28 00:49:06;;;;;;;6.73;5.77;;;;;;;16.75;100.00;101310.22;4974566;28;20504;-70
2023/07/28 00:51:32;;;;;;;7.57;6.77;;;;;;;17.34;100.00;101399.94;4977352;28;20190;-70
2023/07/28 00:53:59;;;;;;;7.00;5.70;;;;;;;17.40;100.00;101412.56;4976627;28;20186;-70
2023/07/28 00:56:24;;;;;;;7.37;6.30;;;;;;;17.14;100.00;101381.22;4972310;28;20194;-70
2023/07/28 00:58:51;;;;;;;11.70;8.40;;;;;;;17.18;100.00;101387.81;4976282;28;21304;-69
2023/07/28 01:01:16;;;;;;;8.43;7.40;;;;;;;17.10;100.00;101371.91;4973462;28;20186;-70
2023/07/28 01:03:42;;;;;;;8.43;6.57;;;;;;;17.43;100.00;101420.22;4965347;28;20459;-70
2023/07/28 01:06:24;;;;;;;9.30;6.83;;;;;;;17.21;100.00;101389.25;4969108;28;20186;-70
2023/07/28 01:08:56;;;;;;;8.40;7.10;;;;;;;17.41;100.00;101419.63;4975896;28;20197;-71
2023/07/28 01:11:22;;;;;;;10.60;7.17;;;;;;;17.08;100.00;101382.97;4973824;28;20457;-70
2023/07/28 01:13:47;;;;;;;7.37;6.40;;;;;;;17.33;100.00;101407.25;4976173;28;20429;-70
2023/07/28 01:16:13;;;;;;;11.40;7.83;;;;;;;17.37;100.00;101413.03;4976325;28;20201;-70
2023/07/28 01:18:39;;;;;;;10.13;7.40;;;;;;;17.42;100.00;101406.91;4976763;28;20202;-70
2023/07/28 01:21:09;;;;;;;14.03;9.73;;;;;;;17.33;100.00;101407.25;4975200;28;22414;-70
2023/07/28 01:24:00;;;;;;;11.00;8.57;;;;;;;17.46;100.00;101416.22;4980745;28;20742;-71
2023/07/28 01:26:44;;;;;;;12.10;8.80;;;;;;;17.45;100.00;101420.84;4962893;28;20472;-70
2023/07/28 01:29:12;;;;;;;12.80;9.33;;;;;;;17.46;100.00;101417.06;4975517;28;20448;-70
2023/07/28 01:31:39;;;;;;;13.63;9.13;;;;;;;17.46;100.00;101416.22;4967071;28;20452;-68
2023/07/28 01:34:04;;;;;;;15.00;9.23;;;;;;;17.48;100.00;101411.41;4966026;28;21457;-70
2023/07/28 01:36:30;;;;;;;13.07;10.50;;;;;;;17.30;100.00;101396.84;4971485;28;20445;-71
2023/07/28 01:38:55;;;;;;;14.47;10.10;;;;;;;17.47;100.00;101412.44;4966206;28;20643;-70
2023/07/28 01:41:21;;;;;;;18.80;12.07;;;;;;;17.46;100.00;101414.34;4967222;28;20198;-70
2023/07/28 01:43:46;;;;;;;20.30;12.50;;;;;;;17.48;100.00;101412.25;4964712;28;20360;-70
2023/07/28 01:46:12;;;;;;;16.20;9.70;;;;;;;17.24;100.00;101396.91;4967322;28;20572;-70
2023/07/28 01:48:37;;;;;;;21.10;11.20;;;;;;;17.52;100.00;101429.69;4967153;28;20213;-70
2023/07/28 01:51:03;;;;;;;19.37;10.33;;;;;;;16.81;100.00;101320.16;4969911;28;20229;-71
2023/07/28 01:53:28;;;;;;;19.70;12.27;;;;;;;17.22;100.00;101383.63;4979378;28;20626;-71
2023/07/28 01:55:54;;;;;;;17.80;11.13;;;;;;;17.44;100.00;101418.34;4967796;28;20193;-70
2023/07/28 01:58:19;;;;;;;19.23;9.57;;;;;;;16.98;100.00;101333.91;4964756;28;20213;-70
2023/07/28 02:00:46;;;;;;;17.53;10.50;;;;;;;17.49;100.00;101432.03;4971685;28;20708;-71
2023/07/28 02:03:11;;;;;;;23.83;13.50;;;;;;;17.49;100.00;101432.03;4967534;28;20689;-71
2023/07/28 02:05:37;;;;;;;13.07;9.57;;;;;;;17.52;100.00;101431.59;4966153;28;20449;-70
2023/07/28 02:08:02;;;;;;;19.90;13.67;;;;;;;17.36;100.00;101414.91;4964819;28;20212;-70
2023/07/28 02:10:29;;;;;;;24.60;13.63;;;;;;;17.37;100.00;101426.56;4971506;28;20221;-70
2023/07/28 02:12:54;;;;;;;20.53;12.87;;;;;;;17.40;100.00;101423.41;4966265;28;20224;-69
2023/07/28 02:15:20;;;;;;;16.10;10.70;;;;;;;17.42;100.00;101423.19;4968108;28;20448;-70
2023/07/28 02:17:45;;;;;;;19.70;11.43;;;;;;;17.50;100.00;101437.25;4966958;28;20325;-70
2023/07/28 02:20:12;;;;;;;23.80;13.50;;;;;;;17.38;100.00;101434.47;4969097;28;20190;-70
2023/07/28 02:22:39;;;;;;;23.33;13.10;;;;;;;17.46;100.00;101444.19;4964738;28;20186;-70
2023/07/28 02:25:04;;;;;;;19.00;12.00;;;;;;;17.16;100.00;101392.66;4961144;28;20488;-70
2023/07/28 02:27:30;;;;;;;26.27;13.03;;;;;;;17.30;100.00;101425.81;4970285;28;20536;-70
2023/07/28 02:29:55;;;;;;;17.97;10.80;;;;;;;17.13;100.00;101379.56;4965539;28;20599;-70
2023/07/28 02:32:21;;;;;;;17.27;11.37;;;;;;;17.50;100.00;101445.38;4983425;28;20190;-70
2023/07/28 02:34:46;;;;;;;23.33;11.50;;;;;;;17.53;100.00;101444.06;4977627;28;20213;-70
2023/07/28 02:37:14;;;;;;;20.27;12.53;;;;;;;17.41;100.00;101427.75;4971972;28;21313;-71
2023/07/28 02:39:39;;;;;;;14.77;10.60;;;;;;;17.33;100.00;101428.94;4973731;28;20302;-70
2023/07/28 02:42:06;;;;;;;18.93;11.40;;;;;;;17.52;100.00;101459.53;4970581;28;20539;-71
2023/07/28 02:44:31;;;;;;;19.57;11.33;;;;;;;17.49;100.00;101451.03;4976852;28;20226;-71
2023/07/28 02:46:57;;;;;;;17.67;10.83;;;;;;;17.40;100.00;101437.78;4971015;28;20616;-70
2023/07/28 02:49:22;;;;;;;23.63;11.53;;;;;;;17.10;100.00;101396.28;4974551;28;20221;-70
2023/07/28 02:51:48;;;;;;;20.20;10.63;;;;;;;16.66;100.00;101317.84;4976829;28;20206;-70
2023/07/28 02:54:13;;;;;;;21.33;12.60;;;;;;;17.29;100.00;101427.72;4974477;28;20642;-70
2023/07/28 02:56:39;;;;;;;17.80;9.10;;;;;;;17.51;100.00;101454.34;4975185;28;20185;-70
2023/07/28 02:59:04;;;;;;;17.10;10.60;;;;;;;17.51;100.00;101455.16;4971150;28;20182;-71
2023/07/28 03:01:33;;;;;;;15.50;10.20;;;;;;;17.45;100.00;101445.25;4974830;28;20216;-70
2023/07/28 03:04:02;;;;;;;14.83;10.13;;;;;;;17.54;100.00;101457.41;4968439;28;20530;-70
2023/07/28 03:06:28;;;;;;;18.27;11.33;;;;;;;17.27;100.00;101412.72;4973249;28;21578;-70
2023/07/28 03:08:54;;;;;;;14.73;9.30;;;;;;;17.52;100.00;101450.56;4970683;28;20476;-70
2023/07/28 03:11:20;;;;;;;15.87;9.47;;;;;;;17.56;100.00;101462.59;4972036;28;20203;-70
2023/07/28 03:13:45;;;;;;;17.30;11.03;;;;;;;17.36;100.00;101438.50;4974259;28;20502;-70
2023/07/28 03:16:11;;;;;;;13.80;9.40;;;;;;;17.59;100.00;101459.47;4974802;28;20274;-70
2023/07/28 03:18:36;;;;;;;13.23;8.83;;;;;;;17.47;100.00;101442.28;4970072;28;20214;-71
2023/07/28 03:21:02;;;;;;;19.07;11.27;;;;;;;17.55;100.00;101461.78;4973616;28;20181;-70
2023/07/28 03:23:27;;;;;;;11.57;8.30;;;;;;;17.28;100.00;101436.09;4970623;28;20445;-70
2023/07/28 03:25:53;;;;;;;10.43;8.13;;;;;;;17.48;100.00;101455.63;4972669;28;20312;-70
2023/07/28 03:28:18;;;;;;;14.83;8.53;;;;;;;17.52;100.00;101458.69;4971026;28;20205;-70
2023/07/28 03:30:44;;;;;;;11.30;7.70;;;;;;;17.50;100.00;101450.81;4968928;28;20261;-70
2023/07/28 03:33:10;;;;;;;9.13;6.90;;;;;;;17.21;100.00;101402.81;4968859;28;20689;-69
2023/07/28 03:35:35;;;;;;;10.13;7.80;;;;;;;17.29;100.00;101426.88;4979768;28;20188;-70
2023/07/28 03:38:00;;;;;;;12.60;8.23;;;;;;;17.49;100.00;101459.16;4972590;28;20220;-71
2023/07/28 03:40:26;;;;;;;9.05;7.10;;;;;;;17.59;100.00;101475.72;4973007;28;21071;-70
2023/07/28 03:42:52;;;;;;;14.27;8.43;;;;;;;17.62;100.00;101480.69;4970476;28;20194;-70
2023/07/28 03:45:18;;;;;;;12.37;7.57;;;;;;;17.61;100.00;101474.41;4971281;28;20189;-70
2023/07/28 03:47:43;;;;;;;9.77;7.53;;;;;;;17.62;100.00;101469.84;4976943;28;21506;-70
2023/07/28 03:50:09;;;;;;;11.60;8.00;;;;;;;17.55;100.00;101467.19;4972757;28;20213;-70
2023/07/28 03:52:34;;;;;;;13.30;8.23;;;;;;;17.54;100.00;101465.56;4970833;28;20309;-70
2023/07/28 03:55:00;;;;;;;10.50;8.00;;;;;;;17.63;100.00;101479.63;4973558;28;20702;-71
2023/07/28 03:57:25;;;;;;;15.53;8.70;;;;;;;17.36;100.00;101430.34;4966144;28;20218;-71
2023/07/28 03:59:51;;;;;;;11.30;8.77;;;;;;;17.61;100.00;101476.31;4971275;28;22148;-70
2023/07/28 04:02:16;;;;;;;14.30;9.00;;;;;;;17.52;100.00;101464.94;4971179;28;20851;-70
2023/07/28 04:04:41;;;;;;;13.30;8.20;;;;;;;17.54;100.00;101464.72;4970609;28;20182;-71
2023/07/28 04:07:07;;;;;;;15.30;9.13;;;;;;;17.35;100.00;101444.94;4969885;28;20217;-70
2023/07/28 04:09:32;;;;;;;13.30;8.67;;;;;;;17.64;100.00;101473.13;4975121;28;20209;-70
2023/07/28 04:11:58;;;;;;;11.67;8.40;;;;;;;17.24;100.00;101433.03;4970733;28;20190;-70
2023/07/28 04:14:23;;;;;;;10.50;7.03;;;;;;;17.66;100.00;101476.44;4968947;28;20354;-70
2023/07/28 04:16:49;;;;;;;13.50;8.73;;;;;;;17.59;100.00;101467.59;4968525;28;20229;-69
2023/07/28 04:19:14;;;;;;;10.20;7.25;;;;;;;17.49;100.00;101456.44;4969117;28;20195;-71
2023/07/28 04:21:40;;;;;;;9.23;7.10;;;;;;;17.56;100.00;101460.75;4967381;28;20201;-70
2023/07/28 04:24:07;;;;;;;15.60;9.23;;;;;;;17.47;100.00;101448.53;4975559;28;20613;-70
2023/07/28 04:26:32;;;;;;;15.00;8.97;;;;;;;17.43;100.00;101446.53;4977811;28;20193;-70
2023/07/28 04:28:58;;;;;;;14.40;9.40;;;;;;;17.48;100.00;101457.53;4973847;28;20441;-70
2023/07/28 04:31:23;;;;;;;14.57;9.80;;;;;;;17.34;100.00;101452.25;4973280;28;20273;-70
2023/07/28 04:33:48;;;;;;;9.50;8.10;;;;;;;17.68;100.00;101487.09;4979746;28;20238;-70
2023/07/28 04:36:14;;;;;;;13.70;8.70;;;;;;;17.59;100.00;101481.16;4976396;28;20178;-71
2023/07/28 04:38:39;;;;;;;12.67;10.07;;;;;;;17.66;100.00;101500.03;4974921;28;20209;-70
2023/07/28 04:41:05;;;;;;;12.13;9.17;;;;;;;17.66;100.00;101502.75;4977838;28;20189;-70
2023/07/28 04:43:30;;;;;;;14.20;10.00;;;;;;;17.57;100.00;101494.13;4971630;28;20189;-70
2023/07/28 04:45:55;;;;;;;12.25;8.80;;;;;;;17.66;100.00;101506.28;4970865;28;20667;-70
2023/07/28 04:48:21;;;;;;;11.23;8.90;;;;;;;17.67;100.00;101510.66;4972254;28;20209;-70
2023/07/28 04:50:47;;;;;;;15.50;10.00;;;;;;;17.67;100.00;101516.06;4974298;28;20241;-70
2023/07/28 04:53:12;;;;;;;14.67;9.37;;;;;;;17.67;100.00;101509.81;4977415;28;20178;-70
2023/07/28 04:55:38;;;;;;;13.73;10.10;;;;;;;17.49;100.00;101480.88;4976234;28;20185;-71
2023/07/28 04:58:03;;;;;;;14.53;10.37;;;;;;;17.40;100.00;101472.22;4975476;28;20198;-70
2023/07/28 05:00:29;;;;;;;14.83;10.10;;;;;;;17.56;100.00;101509.56;4981439;28;20182;-70
2023/07/28 05:02:54;;;;;;;13.50;11.27;;;;;;;17.30;100.00;101467.34;4974825;28;20675;-70
2023/07/28 05:05:20;;;;;;;12.90;9.70;;;;;;;17.66;100.00;101516.31;4969504;28;20186;-70
2023/07/28 05:07:45;;;;;;;14.80;9.33;;;;;;;17.65;100.00;101504.66;4972581;28;20232;-70
2023/07/28 05:10:11;;;;;;;13.70;9.75;;;;;;;17.64;100.00;101516.53;4972061;28;20985;-70
2023/07/28 05:12:36;;;;;;;16.10;11.30;;;;;;;17.61;100.00;101517.81;4971543;28;20266;-69
2023/07/28 05:15:02;;;;;;;16.53;9.83;;;;;;;17.64;100.00;101508.41;4969965;28;20236;-70
2023/07/28 05:17:27;;;;;;;17.27;10.90;;;;;;;17.64;100.00;101521.97;4962153;28;20304;-70
2023/07/28 05:19:53;;;;;;;18.07;11.53;;;;;;;17.64;100.00;101508.41;4972812;28;20201;-70
2023/07/28 05:22:18;;;;;;;17.53;11.93;;;;;;;17.57;100.00;101507.69;4969583;28;20197;-70
2023/07/28 05:24:45;;;;;;;14.13;11.00;;;;;;;17.65;100.00;101518.22;4966793;28;20194;-70
2023/07/28 05:27:11;;;;;;;14.50;10.27;;;;;;;17.56;100.00;101500.56;4966812;28;20202;-70
2023/07/28 05:29:37;;;;;;;14.67;9.70;;;;;;;17.73;100.00;101519.75;4968347;28;20473;-70
2023/07/28 05:32:03;;;;;;;15.43;10.20;;;;;;;17.62;100.00;101508.66;4968946;28;20934;-70
2023/07/28 05:34:29;;;;;;;14.17;9.17;;;;;;;17.53;100.00;101490.19;4970597;28;20187;-69
2023/07/28 05:36:55;;;;;;;13.37;8.60;;;;;;;17.72;100.00;101523.53;4973989;28;20445;-69
2023/07/28 05:39:20;;;;;;;16.80;9.20;;;;;;;17.74;100.00;101527.69;4985196;28;20440;-69
2023/07/28 05:41:46;;;;;;;15.03;9.43;;;;;;;17.71;100.00;101521.91;4970168;28;20190;-69
2023/07/28 05:44:11;;;;;;;17.67;10.57;;;;;;;17.47;100.00;101489.22;4974320;28;20194;-69
2023/07/28 05:46:37;;;;;;;14.73;9.20;;;;;;;17.77;100.00;101527.22;4971663;28;20544;-69
2023/07/28 05:49:03;;;;;;;9.90;7.37;;;;;;;17.77;100.00;101535.38;4971246;28;20705;-70
2023/07/28 05:51:30;;;;;;;12.70;9.27;;;;;;;17.73;100.00;101533.31;4954309;28;20200;-70
2023/07/28 05:53:55;;;;;;;22.20;10.40;;;;;;;17.67;100.00;101510.66;4971263;28;20743;-70
2023/07/28 05:56:21;;;;;;;16.27;9.70;;;;;;;17.76;100.00;101531.00;4971796;28;20452;-69
2023/07/28 05:58:48;;;;;;;12.93;8.50;;;;;;;17.67;100.00;101520.69;4968943;28;20297;-69
2023/07/28 06:01:13;;;;;;;18.43;10.03;;;;;;;17.66;100.00;101519.84;4971246;28;20185;-69
2023/07/28 06:03:39;;;;;;;12.80;8.40;;;;;;;17.78;100.00;101545.19;4968775;28;21023;-69
2023/07/28 06:06:04;;;;;;;18.30;9.65;;;;;;;17.48;100.00;101500.91;4969467;28;20197;-69
2023/07/28 06:08:30;;;;;;;19.33;10.23;;;;;;;17.70;100.00;101539.22;4970552;28;20483;-69
2023/07/28 06:10:55;;;;;;;18.03;8.87;;;;;;;17.80;100.00;101544.97;4973133;28;20218;-69
2023/07/28 06:13:21;;;;;;;11.30;8.70;;;;;;;17.81;100.00;101538.47;4972876;28;20202;-69
2023/07/28 06:15:46;;;;;;;17.40;9.20;;;;;;;17.52;100.00;101483.94;4976667;28;20193;-69
2023/07/28 06:18:12;;;;;;;11.87;8.33;;;;;;;17.53;100.00;101482.03;4974274;28;20630;-69
2023/07/28 06:20:37;;;;;;;10.07;7.40;;;;;;;17.89;100.00;101540.88;4970028;28;20673;-69
2023/07/28 06:23:03;;;;;;;16.13;8.60;;;;;;;17.87;100.00;101542.16;4966550;28;20221;-69
2023/07/28 06:25:28;;;;;;;19.67;9.33;;;;;;;17.89;100.00;101542.75;4965110;28;20233;-69
2023/07/28 06:27:54;;;;;;;12.63;8.80;;;;;;;17.80;100.00;101537.66;4965972;28;20213;-69
2023/07/28 06:30:20;;;;;;;13.43;8.10;;;;;;;17.72;100.00;101528.97;4967809;28;20210;-69
2023/07/28 06:32:46;;;;;;;15.90;10.60;;;;;;;17.87;100.00;101547.56;4964855;28;21047;-69
2023/07/28 06:35:11;;;;;;;14.20;7.70;;;;;;;17.90;100.00;101557.97;4975583;28;20496;-69
2023/07/28 06:37:37;;;;;;;17.57;10.90;;;;;;;17.89;100.00;101554.44;4970193;28;20218;-69
2023/07/28 06:40:08;;;;;;;10.83;7.70;;;;;;;17.89;100.00;101559.03;4972524;28;20224;-69
2023/07/28 06:42:34;;;;;;;18.60;10.30;;;;;;;17.74;100.00;101543.13;4971719;28;20436;-69
2023/07/28 06:45:00;;;;;;;13.50;9.97;;;;;;;17.58;100.00;101520.16;4973153;28;20532;-69
2023/07/28 06:47:25;;;;;;;14.57;9.63;;;;;;;17.91;100.00;101567.78;4971255;28;21276;-69
2023/07/28 06:49:50;;;;;;;12.37;8.00;;;;;;;17.95;100.00;101574.41;4968546;28;20218;-69
2023/07/28 06:52:16;;;;;;;11.53;7.90;;;;;;;17.93;100.00;101580.03;4969846;28;20733;-70
2023/07/28 06:54:41;;;;;;;12.03;8.40;;;;;;;17.71;100.00;101555.28;4971095;28;20213;-70
2023/07/28 06:57:07;;;;;;;13.57;8.90;;;;;;;17.88;100.00;101579.06;4971241;28;20241;-69
2023/07/28 06:59:32;;;;;;;13.63;9.63;;;;;;;17.79;100.00;101562.28;4969253;28;20194;-70
2023/07/28 07:01:58;;;;;;;11.27;7.77;;;;;;;17.89;100.00;101586.19;4966630;28;20190;-69
2023/07/28 07:04:23;;;;;;;13.60;8.60;;;;;;;17.91;100.00;101589.50;4965936;28;20266;-70
2023/07/28 07:06:49;;;;;;;15.60;8.07;;;;;;;17.82;100.00;101576.25;4968994;28;20276;-70
2023/07/28 07:09:14;;;;;;;11.60;7.70;;;;;;;17.83;100.00;101588.75;4970984;28;20191;-70
2023/07/28 07:11:40;;;;;;;15.13;8.17;;;;;;;18.04;100.00;101613.72;4969450;28;20202;-70
2023/07/28 07:14:06;;;;;;;14.80;8.93;;;;;;;17.80;100.00;101581.06;4977496;28;20683;-70
2023/07/28 07:16:32;;;;;;;9.53;7.67;;;;;;;18.09;100.00;101616.59;4971485;28;20453;-70
2023/07/28 07:18:57;;;;;;;11.47;7.93;;;;;;;18.09;100.00;101603.03;4970277;28;20210;-69
2023/07/28 07:21:23;;;;;;;9.53;7.73;;;;;;;17.99;100.00;101584.56;4972205;28;20943;-70
2023/07/28 07:23:49;;;;;;;10.47;7.83;;;;;;;18.05;100.00;101594.50;4968466;28;20186;-70
2023/07/28 07:26:14;;;;;;;9.97;7.40;;;;;;;18.26;100.00;101625.75;4971277;28;20220;-69
2023/07/28 07:28:39;;;;;;;9.00;7.10;;;;;;;18.29;100.00;101611.72;4973788;28;20201;-70
2023/07/28 07:31:13;;;;;;;10.73;7.60;;;;;;;18.43;100.00;101630.53;4974497;28;21290;-69
2023/07/28 07:33:38;;;;;;;9.23;6.50;;;;;;;18.16;100.00;101586.63;4976443;28;20177;-69
2023/07/28 07:36:04;;;;;;;13.83;7.73;;;;;;;18.40;100.00;101631.81;4978722;28;20460;-69
2023/07/28 07:38:29;;;;;;;11.03;6.93;;;;;;;18.22;100.00;101619.09;4979048;28;20213;-69
2023/07/28 07:40:55;;;;;;;8.77;7.20;;;;;;;18.24;100.00;101636.00;4979573;28;20182;-70
2023/07/28 07:43:20;;;;;;;7.43;5.47;;;;;;;18.29;100.00;101632.59;4981793;28;20670;-69
2023/07/28 07:45:47;;;;;;;7.33;5.63;;;;;;;18.29;100.00;101619.84;4978763;28;20194;-69
2023/07/28 07:48:13;;;;;;;6.37;5.73;;;;;;;18.35;100.00;101639.81;4976128;28;20211;-69
2023/07/28 07:50:38;;;;;;;7.60;5.30;;;;;;;18.35;100.00;101637.13;4973200;28;20997;-69
2023/07/28 07:53:04;;;;;;;6.17;5.57;;;;;;;18.20;100.00;101609.56;4970966;28;20450;-69
2023/07/28 07:55:31;;;;;;;7.10;5.60;;;;;;;18.34;100.00;101615.59;4974528;28;20338;-68
2023/07/28 07:57:57;;;;;;;8.40;6.20;;;;;;;18.65;100.00;101642.50;4975459;28;20750;-69
2023/07/28 08:00:23;;;;;;;8.73;6.33;;;;;;;18.66;100.00;101638.75;4970226;28;20441;-70
2023/07/28 08:02:49;;;;;;;11.77;7.13;;;;;;;18.64;100.00;101640.03;4976889;28;20928;-69
2023/07/28 08:05:15;;;;;;;10.07;6.90;;;;;;;18.59;100.00;101640.72;4973301;28;20444;-69
2023/07/28 08:07:40;;;;;;;10.23;6.40;;;;;;;18.56;100.00;101643.06;4979239;28;20572;-69
2023/07/28 08:10:06;;;;;;;10.67;6.60;;;;;;;18.40;100.00;101625.53;4974306;28;20663;-69
2023/07/28 08:12:32;;;;;;;7.23;6.53;;;;;;;18.27;100.00;101607.56;4975454;28;20506;-69
2023/07/28 08:14:57;;;;;;;8.30;5.33;;;;;;;18.55;100.00;101638.72;4972800;28;20236;-69
2023/07/28 08:17:23;;;;;;;5.83;5.23;;;;;;;18.39;100.00;101585.88;4974797;28;20214;-70
2023/07/28 08:19:49;;;;;;;7.27;6.50;;;;;;;18.59;100.00;101640.72;4974634;28;20551;-69
2023/07/28 08:22:14;;;;;;;8.20;7.40;;;;;;;18.52;100.00;101645.44;4976213;28;20912;-69
2023/07/28 08:24:40;;;;;;;8.10;6.23;;;;;;;18.24;100.00;101602.59;4978126;28;20198;-69
2023/07/28 08:27:06;;;;;;;7.70;6.73;;;;;;;18.53;100.00;101641.66;4972729;28;20244;-69
2023/07/28 08:29:31;;;;;;;6.47;5.73;;;;;;;18.49;100.00;101648.63;4970916;28;20218;-68
2023/07/28 08:31:56;;;;;;;6.47;5.03;;;;;;;18.48;100.00;101645.03;4975920;28;20441;-69
2023/07/28 08:34:22;;;;;;;5.00;4.50;;;;;;;18.42;100.00;101616.09;4974680;28;20193;-69
2023/07/28 08:36:47;;;;;;;7.13;4.97;;;;;;;18.51;100.00;101641.03;4975351;28;20292;-69
2023/07/28 08:39:14;;;;;;;5.43;4.50;;;;;;;18.31;100.00;101587.00;4965344;28;20201;-69
2023/07/28 08:41:40;;;;;;;5.37;4.87;;;;;;;18.44;100.00;101626.75;4978125;28;20186;-69
2023/07/28 08:44:07;;;;;;;5.30;4.17;;;;;;;18.63;100.00;101652.78;4972666;28;20449;-68
2023/07/28 08:46:34;;;;;;;5.73;5.07;;;;;;;18.37;100.00;101623.28;4973183;28;20190;-69
2023/07/28 08:49:00;;;;;;;6.47;4.47;;;;;;;18.51;100.00;101657.34;4971284;28;20518;-69
2023/07/28 08:51:25;;;;;;;5.77;4.97;;;;;;;18.42;100.00;101653.31;4972982;28;21016;-70
2023/07/28 08:53:51;;;;;;;5.10;4.60;;;;;;;18.37;100.00;101661.31;4972556;28;20218;-69
2023/07/28 08:56:16;;;;;;;8.05;5.60;;;;;;;18.27;100.00;101640.16;4972067;28;20206;-69
2023/07/28 08:58:41;;;;;;;7.83;5.00;;;;;;;17.99;100.00;101579.16;4977070;28;20287;-69
2023/07/28 09:01:07;;;;;;;5.03;4.50;;;;;;;18.57;100.00;101658.31;4971614;28;20194;-69
2023/07/28 09:03:37;;;;;;;6.47;5.07;;;;;;;18.32;100.00;101615.03;4973145;28;20186;-69
2023/07/28 09:06:02;;;;;;;6.33;5.57;;;;;;;18.59;100.00;101658.91;4975383;28;20564;-69
2023/07/28 09:08:31;;;;;;;9.00;5.70;;;;;;;18.64;100.00;101657.16;4971103;28;20458;-69
2023/07/28 09:11:02;;;;;;;5.90;5.10;;;;;;;18.62;100.00;101661.97;4974207;28;20218;-69
2023/07/28 09:13:36;;;;;;;4.30;3.90;;;;;;;18.77;100.00;101666.19;4971529;28;21485;-69
2023/07/28 09:16:01;;;;;;;5.73;4.83;;;;;;;18.70;100.00;101663.53;4972302;28;20869;-69
2023/07/28 09:18:29;;;;;;;4.67;3.60;;;;;;;18.76;100.00;101653.66;4972254;28;20466;-69
2023/07/28 09:20:55;;;;;;;4.50;3.87;;;;;;;18.80;100.00;101660.28;4968647;28;20186;-69
2023/07/28 09:23:30;;;;;;;5.30;4.00;;;;;;;18.96;100.00;101662.31;4973996;28;20471;-69
2023/07/28 09:26:01;;;;;;;4.80;3.70;;;;;;;19.06;100.00;101657.13;4971845;28;20248;-69
2023/07/28 09:28:40;;;;;;;4.73;3.60;;;;;;;18.83;100.00;101619.03;4967146;28;20485;-69
2023/07/28 09:31:06;;;;;;;4.33;3.63;;;;;;;18.99;100.00;101639.28;4971831;28;20472;-69
2023/07/28 09:33:33;;;;;;;4.13;3.27;;;;;;;18.76;100.00;101600.13;4972945;28;20460;-69
2023/07/28 09:36:10;;;;;;;6.37;4.83;;;;;;;18.97;100.00;101648.47;4969044;28;20484;-69
2023/07/28 09:38:38;;;;;;;6.47;4.93;;;;;;;18.88;100.00;101657.22;4971230;28;21393;-69
2023/07/28 09:41:10;;;;;;;9.07;4.97;;;;;;;18.69;100.00;101618.44;4970248;28;20470;-69
2023/07/28 09:43:37;;;;;;;6.43;4.70;;;;;;;19.12;100.00;101655.34;4973167;28;20449;-69
2023/07/28 09:46:06;;;;;;;5.63;5.03;;;;;;;18.95;100.00;101650.63;4975584;28;20545;-69
2023/07/28 09:48:33;;;;;;;5.57;4.10;;;;;;;19.12;100.00;101664.34;4963677;28;20592;-69
2023/07/28 09:51:05;;;;;;;5.60;4.60;;;;;;;19.14;100.00;101635.00;4969952;28;20480;-69
2023/07/28 09:53:35;;;;;;;4.57;4.03;;;;;;;19.42;100.00;101687.88;4968459;28;20547;-69
2023/07/28 09:56:02;;;;;;;5.40;4.87;;;;;;;19.20;100.00;101646.84;4971731;28;20448;-69
2023/07/28 09:58:33;;;;;;;4.80;4.30;;;;;;;19.32;100.00;101642.22;4966906;28;20454;-69
2023/07/28 10:00:59;;;;;;;4.67;4.17;;;;;;;19.40;100.00;101658.19;4971544;28;21578;-69
2023/07/28 10:03:25;;;;;;;4.00;3.60;;;;;;;19.59;100.00;101658.88;4969537;28;20535;-69
2023/07/28 10:05:51;;;;;;;5.97;4.67;;;;;;;19.43;100.00;101632.41;4972195;28;20463;-69
2023/07/28 10:08:16;;;;;;;6.20;5.30;;;;;;;19.37;100.00;101636.06;4971370;28;20233;-69
2023/07/28 10:10:42;;;;;;;8.07;5.97;;;;;;;19.29;100.00;101611.97;4970699;28;20252;-69
2023/07/28 10:13:19;;;;;;;6.70;4.90;;;;;;;19.55;100.00;101641.38;4969967;28;20655;-69
2023/07/28 10:15:46;;;;;;;6.67;5.97;;;;;;;19.45;100.00;101638.44;4969077;28;20197;-70
2023/07/28 10:18:12;;;;;;;4.70;4.30;;;;;;;19.57;100.00;101622.09;4972552;28;20476;-69
2023/07/28 10:20:40;;;;;;;5.87;4.80;;;;;;;19.35;100.00;101606.41;4965913;28;20579;-69
2023/07/28 10:23:07;;;;;;;5.30;4.80;;;;;;;19.63;100.00;101608.34;4969690;28;20450;-69
2023/07/28 10:25:35;;;;;;;5.70;4.67;;;;;;;19.69;100.00;101612.03;4974418;28;20452;-69
2023/07/28 10:28:02;;;;;;;5.47;4.30;;;;;;;19.79;100.00;101587.75;4973408;28;20464;-69
2023/07/28 10:30:28;;;;;;;5.63;4.60;;;;;;;19.76;100.00;101587.38;4971818;28;21224;-69
2023/07/28 10:32:55;;;;;;;5.73;4.60;;;;;;;19.09;100.00;101488.09;4971068;28;20950;-69
2023/07/28 10:35:26;;;;;;;4.73;4.03;;;;;;;19.57;100.00;101579.38;4971225;28;21010;-69
2023/07/28 10:37:56;;;;;;;4.60;4.13;;;;;;;19.46;100.00;101569.34;4968802;28;20494;-69
2023/07/28 10:40:22;;;;;;;4.50;3.60;;;;;;;19.61;100.00;101553.34;4970266;28;20833;-69
2023/07/28 10:42:47;;;;;;;4.80;3.70;;;;;;;19.45;100.00;101521.47;4971778;28;20441;-69
2023/07/28 10:45:13;;;;;;;4.63;4.00;;;;;;;19.61;100.00;101541.63;4971733;28;20193;-69
2023/07/28 10:47:40;;;;;;;5.00;3.90;;;;;;;19.56;100.00;101546.97;4973741;28;20273;-69
2023/07/28 10:50:09;;;;;;;4.83;4.33;;;;;;;19.29;100.00;101497.72;4970046;28;20639;-69
2023/07/28 10:52:38;;;;;;;5.13;4.17;;;;;;;19.51;100.00;101525.94;4970278;28;20445;-69
2023/07/28 10:55:04;;;;;;;4.57;4.17;;;;;;;19.48;100.00;101512.81;4969418;28;20433;-69
2023/07/28 10:57:30;;;;;;;4.97;4.10;;;;;;;19.48;100.00;101512.81;4986326;28;20464;-69
2023/07/28 11:00:00;;;;;;;4.73;3.90;;;;;;;19.40;100.00;101511.28;4969707;28;20272;-70
2023/07/28 11:02:27;;;;;;;4.80;4.17;;;;;;;19.25;100.00;101513.69;4966044;28;20904;-69
2023/07/28 11:04:52;;;;;;;4.37;3.90;;;;;;;19.31;100.00;101492.88;4968468;28;20456;-69
2023/07/28 11:07:18;;;;;;;10.00;4.37;;;;;;;19.75;100.00;101495.94;4970752;28;20473;-69